sensor_id;sensor_type;location;lat;lon;timestamp;P1;durP1;ratioP1;P2;durP2;ratioP2
39044;SDS011;52192;52.002;5.956;2023-10-08T00:01:14;5.25;;;2.00;;
39044;SDS011;52192;52.002;5.956;2023-10-08T00:03:44;4.15;;;1.55;;
39044;SDS011;52192;52.002;5.956;2023-10-08T00:06:17;6.10;;;2.05;;
39044;SDS011;52192;52.002;5.956;2023-10-08T00:08:45;1.80;;;1.38;;
39044;SDS011;52192;52.002;5.956;2023-10-08T00:11:11;6.10;;;1.67;;
39044;SDS011;52192;52.002;5.956;2023-10-08T00:13:36;3.90;;;1.38;;
39044;SDS011;52192;52.002;5.956;2023-10-08T00:16:06;8.00;;;1.77;;
39044;SDS011;52192;52.002;5.956;2023-10-08T00:18:37;5.28;;;2.38;;
39044;SDS011;52192;52.002;5.956;2023-10-08T00:21:05;6.95;;;2.15;;
39044;SDS011;52192;52.002;5.956;2023-10-08T00:23:37;3.42;;;1.13;;
39044;SDS011;52192;52.002;5.956;2023-10-08T00:26:22;2.22;;;0.98;;
39044;SDS011;52192;52.002;5.956;2023-10-08T00:29:04;2.33;;;1.27;;
39044;SDS011;52192;52.002;5.956;2023-10-08T00:31:31;4.20;;;1.65;;
39044;SDS011;52192;52.002;5.956;2023-10-08T00:34:06;3.42;;;2.33;;
39044;SDS011;52192;52.002;5.956;2023-10-08T00:36:36;3.50;;;2.15;;
39044;SDS011;52192;52.002;5.956;2023-10-08T00:39:05;7.13;;;1.67;;
39044;SDS011;52192;52.002;5.956;2023-10-08T00:41:39;3.90;;;1.35;;
39044;SDS011;52192;52.002;5.956;2023-10-08T00:44:07;8.55;;;2.47;;
39044;SDS011;52192;52.002;5.956;2023-10-08T00:46:37;4.55;;;1.27;;
39044;SDS011;52192;52.002;5.956;2023-10-08T00:49:22;3.90;;;1.90;;
39044;SDS011;52192;52.002;5.956;2023-10-08T00:51:57;6.55;;;2.08;;
39044;SDS011;52192;52.002;5.956;2023-10-08T00:54:45;4.50;;;1.83;;
39044;SDS011;52192;52.002;5.956;2023-10-08T00:57:34;2.95;;;1.50;;
39044;SDS011;52192;52.002;5.956;2023-10-08T01:00:01;3.55;;;1.85;;
39044;SDS011;52192;52.002;5.956;2023-10-08T01:02:32;4.22;;;2.22;;
39044;SDS011;52192;52.002;5.956;2023-10-08T01:05:10;7.13;;;1.40;;
39044;SDS011;52192;52.002;5.956;2023-10-08T01:07:37;3.67;;;1.50;;
39044;SDS011;52192;52.002;5.956;2023-10-08T01:10:09;2.75;;;1.50;;
39044;SDS011;52192;52.002;5.956;2023-10-08T01:12:36;6.22;;;1.50;;
39044;SDS011;52192;52.002;5.956;2023-10-08T01:15:15;6.28;;;1.30;;
39044;SDS011;52192;52.002;5.956;2023-10-08T01:17:49;2.78;;;1.52;;
39044;SDS011;52192;52.002;5.956;2023-10-08T01:20:39;3.63;;;2.05;;
39044;SDS011;52192;52.002;5.956;2023-10-08T01:23:17;5.88;;;2.20;;
39044;SDS011;52192;52.002;5.956;2023-10-08T01:25:46;2.40;;;1.48;;
39044;SDS011;52192;52.002;5.956;2023-10-08T01:28:31;2.90;;;1.55;;
39044;SDS011;52192;52.002;5.956;2023-10-08T01:30:59;2.85;;;1.15;;
39044;SDS011;52192;52.002;5.956;2023-10-08T01:33:29;3.85;;;1.42;;
39044;SDS011;52192;52.002;5.956;2023-10-08T01:35:56;3.58;;;1.35;;
39044;SDS011;52192;52.002;5.956;2023-10-08T01:38:29;2.95;;;1.65;;
39044;SDS011;52192;52.002;5.956;2023-10-08T01:40:57;1.38;;;1.10;;
39044;SDS011;52192;52.002;5.956;2023-10-08T01:43:28;2.03;;;1.45;;
39044;SDS011;52192;52.002;5.956;2023-10-08T01:45:54;2.55;;;1.00;;
39044;SDS011;52192;52.002;5.956;2023-10-08T01:48:20;3.28;;;1.58;;
39044;SDS011;52192;52.002;5.956;2023-10-08T01:51:02;1.47;;;0.90;;
39044;SDS011;52192;52.002;5.956;2023-10-08T01:53:34;3.42;;;2.00;;
39044;SDS011;52192;52.002;5.956;2023-10-08T01:56:01;1.60;;;0.90;;
39044;SDS011;52192;52.002;5.956;2023-10-08T01:58:29;4.25;;;2.05;;
39044;SDS011;52192;52.002;5.956;2023-10-08T02:00:55;1.23;;;1.02;;
39044;SDS011;52192;52.002;5.956;2023-10-08T02:03:25;5.28;;;1.77;;
39044;SDS011;52192;52.002;5.956;2023-10-08T02:05:52;2.88;;;1.80;;
39044;SDS011;52192;52.002;5.956;2023-10-08T02:08:19;3.63;;;1.10;;
39044;SDS011;52192;52.002;5.956;2023-10-08T02:10:44;4.30;;;2.17;;
39044;SDS011;52192;52.002;5.956;2023-10-08T02:13:12;3.63;;;1.55;;
39044;SDS011;52192;52.002;5.956;2023-10-08T02:15:49;2.15;;;1.42;;
39044;SDS011;52192;52.002;5.956;2023-10-08T02:18:18;1.88;;;1.67;;
39044;SDS011;52192;52.002;5.956;2023-10-08T02:20:44;2.50;;;1.13;;
39044;SDS011;52192;52.002;5.956;2023-10-08T02:23:10;3.13;;;1.45;;
39044;SDS011;52192;52.002;5.956;2023-10-08T02:25:39;1.73;;;1.20;;
39044;SDS011;52192;52.002;5.956;2023-10-08T02:28:06;1.50;;;1.27;;
39044;SDS011;52192;52.002;5.956;2023-10-08T02:30:40;6.45;;;1.63;;
39044;SDS011;52192;52.002;5.956;2023-10-08T02:33:06;2.30;;;1.23;;
39044;SDS011;52192;52.002;5.956;2023-10-08T02:35:41;2.95;;;2.05;;
39044;SDS011;52192;52.002;5.956;2023-10-08T02:38:11;6.63;;;2.03;;
39044;SDS011;52192;52.002;5.956;2023-10-08T02:40:38;3.20;;;1.75;;
39044;SDS011;52192;52.002;5.956;2023-10-08T02:43:10;2.95;;;1.80;;
39044;SDS011;52192;52.002;5.956;2023-10-08T02:45:36;5.25;;;1.73;;
39044;SDS011;52192;52.002;5.956;2023-10-08T02:48:06;7.47;;;1.83;;
39044;SDS011;52192;52.002;5.956;2023-10-08T02:50:40;6.13;;;1.80;;
39044;SDS011;52192;52.002;5.956;2023-10-08T02:53:06;6.20;;;2.00;;
39044;SDS011;52192;52.002;5.956;2023-10-08T02:55:43;8.00;;;2.03;;
39044;SDS011;52192;52.002;5.956;2023-10-08T02:58:12;2.55;;;1.85;;
39044;SDS011;52192;52.002;5.956;2023-10-08T03:00:43;3.28;;;1.38;;
39044;SDS011;52192;52.002;5.956;2023-10-08T03:03:12;2.90;;;1.30;;
39044;SDS011;52192;52.002;5.956;2023-10-08T03:05:43;8.60;;;2.15;;
39044;SDS011;52192;52.002;5.956;2023-10-08T03:08:11;2.20;;;1.27;;
39044;SDS011;52192;52.002;5.956;2023-10-08T03:10:40;3.25;;;1.83;;
39044;SDS011;52192;52.002;5.956;2023-10-08T03:13:07;3.90;;;1.48;;
39044;SDS011;52192;52.002;5.956;2023-10-08T03:15:35;5.15;;;1.88;;
39044;SDS011;52192;52.002;5.956;2023-10-08T03:18:12;5.85;;;1.67;;
39044;SDS011;52192;52.002;5.956;2023-10-08T03:20:42;6.43;;;1.60;;
39044;SDS011;52192;52.002;5.956;2023-10-08T03:23:09;1.73;;;1.48;;
39044;SDS011;52192;52.002;5.956;2023-10-08T03:25:58;2.25;;;1.65;;
39044;SDS011;52192;52.002;5.956;2023-10-08T03:28:42;4.35;;;1.98;;
39044;SDS011;52192;52.002;5.956;2023-10-08T03:31:08;3.13;;;1.70;;
39044;SDS011;52192;52.002;5.956;2023-10-08T03:33:42;1.55;;;1.13;;
39044;SDS011;52192;52.002;5.956;2023-10-08T03:36:14;2.08;;;1.38;;
39044;SDS011;52192;52.002;5.956;2023-10-08T03:38:45;5.32;;;2.15;;
39044;SDS011;52192;52.002;5.956;2023-10-08T03:43:49;4.68;;;2.45;;
39044;SDS011;52192;52.002;5.956;2023-10-08T03:46:21;2.80;;;2.45;;
39044;SDS011;52192;52.002;5.956;2023-10-08T03:48:48;6.72;;;1.83;;
39044;SDS011;52192;52.002;5.956;2023-10-08T03:51:16;4.28;;;2.53;;
39044;SDS011;52192;52.002;5.956;2023-10-08T03:53:45;2.58;;;1.70;;
39044;SDS011;52192;52.002;5.956;2023-10-08T03:56:31;4.13;;;1.85;;
39044;SDS011;52192;52.002;5.956;2023-10-08T03:58:57;2.25;;;1.88;;
39044;SDS011;52192;52.002;5.956;2023-10-08T04:01:28;5.70;;;2.50;;
39044;SDS011;52192;52.002;5.956;2023-10-08T04:03:58;4.70;;;3.28;;
39044;SDS011;52192;52.002;5.956;2023-10-08T04:06:25;3.85;;;2.42;;
39044;SDS011;52192;52.002;5.956;2023-10-08T04:09:01;5.60;;;2.25;;
39044;SDS011;52192;52.002;5.956;2023-10-08T04:11:33;5.53;;;2.20;;
39044;SDS011;52192;52.002;5.956;2023-10-08T04:14:14;4.25;;;2.30;;
39044;SDS011;52192;52.002;5.956;2023-10-08T04:16:43;3.30;;;1.85;;
39044;SDS011;52192;52.002;5.956;2023-10-08T04:19:09;3.80;;;1.75;;
39044;SDS011;52192;52.002;5.956;2023-10-08T04:21:36;3.05;;;1.52;;
39044;SDS011;52192;52.002;5.956;2023-10-08T04:24:02;3.08;;;1.45;;
39044;SDS011;52192;52.002;5.956;2023-10-08T04:26:31;3.83;;;1.48;;
39044;SDS011;52192;52.002;5.956;2023-10-08T04:28:58;4.03;;;1.80;;
39044;SDS011;52192;52.002;5.956;2023-10-08T04:31:30;4.40;;;1.48;;
39044;SDS011;52192;52.002;5.956;2023-10-08T04:34:08;1.20;;;1.10;;
39044;SDS011;52192;52.002;5.956;2023-10-08T04:39:10;1.73;;;1.10;;
39044;SDS011;52192;52.002;5.956;2023-10-08T04:41:40;5.75;;;1.77;;
39044;SDS011;52192;52.002;5.956;2023-10-08T04:44:10;1.08;;;0.63;;
39044;SDS011;52192;52.002;5.956;2023-10-08T04:46:44;1.83;;;0.88;;
39044;SDS011;52192;52.002;5.956;2023-10-08T04:49:16;0.77;;;0.60;;
39044;SDS011;52192;52.002;5.956;2023-10-08T04:51:59;1.23;;;0.63;;
39044;SDS011;52192;52.002;5.956;2023-10-08T04:54:27;1.60;;;1.50;;
39044;SDS011;52192;52.002;5.956;2023-10-08T04:56:55;2.17;;;0.90;;
39044;SDS011;52192;52.002;5.956;2023-10-08T04:59:23;1.48;;;0.95;;
39044;SDS011;52192;52.002;5.956;2023-10-08T05:01:57;0.90;;;0.80;;
39044;SDS011;52192;52.002;5.956;2023-10-08T05:04:39;1.58;;;0.85;;
39044;SDS011;52192;52.002;5.956;2023-10-08T05:07:17;1.75;;;1.00;;
39044;SDS011;52192;52.002;5.956;2023-10-08T05:09:47;1.27;;;1.00;;
39044;SDS011;52192;52.002;5.956;2023-10-08T05:12:13;0.65;;;0.60;;
39044;SDS011;52192;52.002;5.956;2023-10-08T05:15:14;1.50;;;0.90;;
39044;SDS011;52192;52.002;5.956;2023-10-08T05:17:42;1.75;;;0.75;;
39044;SDS011;52192;52.002;5.956;2023-10-08T05:20:15;0.95;;;0.85;;
39044;SDS011;52192;52.002;5.956;2023-10-08T05:23:09;2.20;;;0.77;;
39044;SDS011;52192;52.002;5.956;2023-10-08T05:25:47;2.28;;;1.50;;
39044;SDS011;52192;52.002;5.956;2023-10-08T05:28:31;6.10;;;0.82;;
39044;SDS011;52192;52.002;5.956;2023-10-08T05:31:07;1.05;;;0.90;;
39044;SDS011;52192;52.002;5.956;2023-10-08T05:33:47;0.88;;;0.70;;
39044;SDS011;52192;52.002;5.956;2023-10-08T05:36:39;1.48;;;0.80;;
39044;SDS011;52192;52.002;5.956;2023-10-08T05:39:18;1.48;;;0.82;;
39044;SDS011;52192;52.002;5.956;2023-10-08T05:41:54;6.28;;;1.25;;
39044;SDS011;52192;52.002;5.956;2023-10-08T05:44:41;0.70;;;0.70;;
39044;SDS011;52192;52.002;5.956;2023-10-08T05:47:14;1.20;;;0.80;;
39044;SDS011;52192;52.002;5.956;2023-10-08T05:49:39;1.50;;;0.68;;
39044;SDS011;52192;52.002;5.956;2023-10-08T05:52:19;2.88;;;0.95;;
39044;SDS011;52192;52.002;5.956;2023-10-08T05:54:55;2.03;;;0.90;;
39044;SDS011;52192;52.002;5.956;2023-10-08T05:57:47;1.37;;;0.60;;
39044;SDS011;52192;52.002;5.956;2023-10-08T06:00:17;0.90;;;0.47;;
39044;SDS011;52192;52.002;5.956;2023-10-08T06:03:03;2.30;;;1.08;;
39044;SDS011;52192;52.002;5.956;2023-10-08T06:05:35;0.70;;;0.70;;
39044;SDS011;52192;52.002;5.956;2023-10-08T06:08:08;1.73;;;0.70;;
39044;SDS011;52192;52.002;5.956;2023-10-08T06:10:39;7.10;;;1.38;;
39044;SDS011;52192;52.002;5.956;2023-10-08T06:13:09;1.77;;;0.93;;
39044;SDS011;52192;52.002;5.956;2023-10-08T06:15:48;0.90;;;0.50;;
39044;SDS011;52192;52.002;5.956;2023-10-08T06:18:18;4.13;;;1.50;;
39044;SDS011;52192;52.002;5.956;2023-10-08T06:20:45;1.35;;;1.08;;
39044;SDS011;52192;52.002;5.956;2023-10-08T06:23:17;1.45;;;0.60;;
39044;SDS011;52192;52.002;5.956;2023-10-08T06:25:44;1.98;;;1.17;;
39044;SDS011;52192;52.002;5.956;2023-10-08T06:28:11;1.77;;;1.13;;
39044;SDS011;52192;52.002;5.956;2023-10-08T06:30:37;1.00;;;0.90;;
39044;SDS011;52192;52.002;5.956;2023-10-08T06:33:06;0.90;;;0.63;;
39044;SDS011;52192;52.002;5.956;2023-10-08T06:35:32;1.58;;;0.50;;
39044;SDS011;52192;52.002;5.956;2023-10-08T06:37:58;2.15;;;0.77;;
39044;SDS011;52192;52.002;5.956;2023-10-08T06:40:43;0.73;;;0.70;;
39044;SDS011;52192;52.002;5.956;2023-10-08T06:43:09;1.85;;;0.82;;
39044;SDS011;52192;52.002;5.956;2023-10-08T06:46:01;0.77;;;0.63;;
39044;SDS011;52192;52.002;5.956;2023-10-08T06:48:28;2.47;;;1.02;;
39044;SDS011;52192;52.002;5.956;2023-10-08T06:50:54;2.50;;;1.10;;
39044;SDS011;52192;52.002;5.956;2023-10-08T06:53:32;1.10;;;0.73;;
39044;SDS011;52192;52.002;5.956;2023-10-08T06:56:03;1.50;;;0.97;;
39044;SDS011;52192;52.002;5.956;2023-10-08T06:58:30;1.27;;;0.73;;
39044;SDS011;52192;52.002;5.956;2023-10-08T07:00:59;1.70;;;0.80;;
39044;SDS011;52192;52.002;5.956;2023-10-08T07:03:30;0.85;;;0.75;;
39044;SDS011;52192;52.002;5.956;2023-10-08T07:05:57;3.60;;;0.73;;
39044;SDS011;52192;52.002;5.956;2023-10-08T07:08:25;0.90;;;0.68;;
39044;SDS011;52192;52.002;5.956;2023-10-08T07:10:59;1.85;;;0.90;;
39044;SDS011;52192;52.002;5.956;2023-10-08T07:13:36;1.92;;;1.00;;
39044;SDS011;52192;52.002;5.956;2023-10-08T07:16:04;0.77;;;0.70;;
39044;SDS011;52192;52.002;5.956;2023-10-08T07:18:31;1.73;;;1.00;;
39044;SDS011;52192;52.002;5.956;2023-10-08T07:20:59;1.70;;;1.30;;
39044;SDS011;52192;52.002;5.956;2023-10-08T07:23:36;1.20;;;1.10;;
39044;SDS011;52192;52.002;5.956;2023-10-08T07:26:19;1.90;;;1.08;;
39044;SDS011;52192;52.002;5.956;2023-10-08T07:28:49;1.55;;;0.77;;
39044;SDS011;52192;52.002;5.956;2023-10-08T07:31:17;1.67;;;1.10;;
39044;SDS011;52192;52.002;5.956;2023-10-08T07:33:48;1.08;;;0.98;;
39044;SDS011;52192;52.002;5.956;2023-10-08T07:36:22;1.38;;;0.98;;
39044;SDS011;52192;52.002;5.956;2023-10-08T07:38:48;2.17;;;0.95;;
39044;SDS011;52192;52.002;5.956;2023-10-08T07:41:14;0.60;;;0.60;;
39044;SDS011;52192;52.002;5.956;2023-10-08T07:43:40;1.25;;;0.98;;
39044;SDS011;52192;52.002;5.956;2023-10-08T07:46:11;0.93;;;0.80;;
39044;SDS011;52192;52.002;5.956;2023-10-08T07:48:40;4.57;;;0.60;;
39044;SDS011;52192;52.002;5.956;2023-10-08T07:51:08;1.08;;;0.98;;
39044;SDS011;52192;52.002;5.956;2023-10-08T07:53:34;0.68;;;0.68;;
39044;SDS011;52192;52.002;5.956;2023-10-08T07:56:06;0.95;;;0.75;;
39044;SDS011;52192;52.002;5.956;2023-10-08T07:58:35;1.05;;;1.00;;
39044;SDS011;52192;52.002;5.956;2023-10-08T08:01:05;1.10;;;0.88;;
39044;SDS011;52192;52.002;5.956;2023-10-08T08:03:34;0.82;;;0.70;;
39044;SDS011;52192;52.002;5.956;2023-10-08T08:06:05;1.52;;;1.15;;
39044;SDS011;52192;52.002;5.956;2023-10-08T08:08:35;1.42;;;1.10;;
39044;SDS011;52192;52.002;5.956;2023-10-08T08:11:02;1.60;;;1.30;;
39044;SDS011;52192;52.002;5.956;2023-10-08T08:13:39;2.95;;;1.85;;
39044;SDS011;52192;52.002;5.956;2023-10-08T08:16:09;1.63;;;1.13;;
39044;SDS011;52192;52.002;5.956;2023-10-08T08:21:13;1.63;;;1.20;;
39044;SDS011;52192;52.002;5.956;2023-10-08T08:23:43;2.08;;;1.27;;
39044;SDS011;52192;52.002;5.956;2023-10-08T08:26:13;5.15;;;1.50;;
39044;SDS011;52192;52.002;5.956;2023-10-08T08:29:09;1.20;;;1.10;;
39044;SDS011;52192;52.002;5.956;2023-10-08T08:31:40;1.15;;;0.95;;
39044;SDS011;52192;52.002;5.956;2023-10-08T08:34:11;2.58;;;1.13;;
39044;SDS011;52192;52.002;5.956;2023-10-08T08:36:44;3.50;;;1.20;;
39044;SDS011;52192;52.002;5.956;2023-10-08T08:39:13;1.65;;;1.17;;
39044;SDS011;52192;52.002;5.956;2023-10-08T08:42:00;2.67;;;1.88;;
39044;SDS011;52192;52.002;5.956;2023-10-08T08:44:29;3.50;;;1.50;;
39044;SDS011;52192;52.002;5.956;2023-10-08T08:47:02;2.22;;;1.30;;
39044;SDS011;52192;52.002;5.956;2023-10-08T08:49:32;1.48;;;1.30;;
39044;SDS011;52192;52.002;5.956;2023-10-08T08:51:59;2.10;;;1.45;;
39044;SDS011;52192;52.002;5.956;2023-10-08T08:54:26;1.58;;;1.15;;
39044;SDS011;52192;52.002;5.956;2023-10-08T08:56:55;2.17;;;1.73;;
39044;SDS011;52192;52.002;5.956;2023-10-08T08:59:29;1.70;;;1.33;;
39044;SDS011;52192;52.002;5.956;2023-10-08T09:01:59;2.05;;;1.10;;
39044;SDS011;52192;52.002;5.956;2023-10-08T09:04:28;1.25;;;0.80;;
39044;SDS011;52192;52.002;5.956;2023-10-08T09:06:55;1.75;;;0.82;;
39044;SDS011;52192;52.002;5.956;2023-10-08T09:09:22;2.15;;;0.80;;
39044;SDS011;52192;52.002;5.956;2023-10-08T09:11:48;0.95;;;0.43;;
39044;SDS011;52192;52.002;5.956;2023-10-08T09:14:17;1.00;;;0.75;;
39044;SDS011;52192;52.002;5.956;2023-10-08T09:16:50;1.27;;;0.73;;
39044;SDS011;52192;52.002;5.956;2023-10-08T09:19:17;2.35;;;0.70;;
39044;SDS011;52192;52.002;5.956;2023-10-08T09:24:44;1.48;;;0.63;;
39044;SDS011;52192;52.002;5.956;2023-10-08T09:27:11;1.08;;;0.68;;
39044;SDS011;52192;52.002;5.956;2023-10-08T09:29:40;1.60;;;0.75;;
39044;SDS011;52192;52.002;5.956;2023-10-08T09:32:11;0.60;;;0.57;;
39044;SDS011;52192;52.002;5.956;2023-10-08T09:34:48;0.82;;;0.50;;
39044;SDS011;52192;52.002;5.956;2023-10-08T09:37:16;2.75;;;0.63;;
39044;SDS011;52192;52.002;5.956;2023-10-08T09:39:42;2.15;;;1.00;;
39044;SDS011;52192;52.002;5.956;2023-10-08T09:42:11;0.75;;;0.43;;
39044;SDS011;52192;52.002;5.956;2023-10-08T09:44:39;3.83;;;0.50;;
39044;SDS011;52192;52.002;5.956;2023-10-08T09:47:05;0.70;;;0.60;;
39044;SDS011;52192;52.002;5.956;2023-10-08T09:49:40;3.63;;;1.48;;
39044;SDS011;52192;52.002;5.956;2023-10-08T09:52:29;0.57;;;0.57;;
39044;SDS011;52192;52.002;5.956;2023-10-08T09:55:02;2.00;;;0.45;;
39044;SDS011;52192;52.002;5.956;2023-10-08T09:57:35;0.55;;;0.50;;
39044;SDS011;52192;52.002;5.956;2023-10-08T10:00:03;1.13;;;0.70;;
39044;SDS011;52192;52.002;5.956;2023-10-08T10:02:35;0.77;;;0.75;;
39044;SDS011;52192;52.002;5.956;2023-10-08T10:05:02;0.50;;;0.50;;
39044;SDS011;52192;52.002;5.956;2023-10-08T10:07:28;0.73;;;0.50;;
39044;SDS011;52192;52.002;5.956;2023-10-08T10:09:55;1.58;;;0.60;;
39044;SDS011;52192;52.002;5.956;2023-10-08T10:12:27;0.93;;;0.63;;
39044;SDS011;52192;52.002;5.956;2023-10-08T10:14:56;0.73;;;0.50;;
39044;SDS011;52192;52.002;5.956;2023-10-08T10:19:53;1.33;;;0.50;;
39044;SDS011;52192;52.002;5.956;2023-10-08T10:22:29;0.70;;;0.38;;
39044;SDS011;52192;52.002;5.956;2023-10-08T10:24:56;0.55;;;0.40;;
39044;SDS011;52192;52.002;5.956;2023-10-08T10:27:22;0.68;;;0.50;;
39044;SDS011;52192;52.002;5.956;2023-10-08T10:29:48;1.20;;;0.85;;
39044;SDS011;52192;52.002;5.956;2023-10-08T10:32:14;0.45;;;0.45;;
39044;SDS011;52192;52.002;5.956;2023-10-08T10:34:41;0.93;;;0.70;;
39044;SDS011;52192;52.002;5.956;2023-10-08T10:37:08;0.85;;;0.52;;
39044;SDS011;52192;52.002;5.956;2023-10-08T10:39:50;3.20;;;0.82;;
39044;SDS011;52192;52.002;5.956;2023-10-08T10:42:26;1.70;;;0.50;;
39044;SDS011;52192;52.002;5.956;2023-10-08T10:44:53;1.02;;;0.75;;
39044;SDS011;52192;52.002;5.956;2023-10-08T10:47:23;0.63;;;0.38;;
39044;SDS011;52192;52.002;5.956;2023-10-08T10:49:53;1.38;;;0.90;;
39044;SDS011;52192;52.002;5.956;2023-10-08T10:52:31;1.27;;;0.63;;
39044;SDS011;52192;52.002;5.956;2023-10-08T10:55:01;2.92;;;0.65;;
39044;SDS011;52192;52.002;5.956;2023-10-08T10:57:55;0.52;;;0.52;;
39044;SDS011;52192;52.002;5.956;2023-10-08T11:00:29;0.30;;;0.30;;
39044;SDS011;52192;52.002;5.956;2023-10-08T11:02:59;0.40;;;0.40;;
39044;SDS011;52192;52.002;5.956;2023-10-08T11:05:28;1.30;;;0.57;;
39044;SDS011;52192;52.002;5.956;2023-10-08T11:07:58;0.50;;;0.50;;
39044;SDS011;52192;52.002;5.956;2023-10-08T11:10:32;0.50;;;0.45;;
39044;SDS011;52192;52.002;5.956;2023-10-08T11:12:58;0.30;;;0.30;;
39044;SDS011;52192;52.002;5.956;2023-10-08T11:15:28;0.85;;;0.43;;
39044;SDS011;52192;52.002;5.956;2023-10-08T11:18:06;0.52;;;0.30;;
39044;SDS011;52192;52.002;5.956;2023-10-08T11:20:33;0.60;;;0.40;;
39044;SDS011;52192;52.002;5.956;2023-10-08T11:23:04;0.60;;;0.47;;
39044;SDS011;52192;52.002;5.956;2023-10-08T11:25:53;1.02;;;0.47;;
39044;SDS011;52192;52.002;5.956;2023-10-08T11:31:07;1.02;;;0.50;;
39044;SDS011;52192;52.002;5.956;2023-10-08T11:33:38;0.52;;;0.52;;
39044;SDS011;52192;52.002;5.956;2023-10-08T11:36:06;0.50;;;0.50;;
39044;SDS011;52192;52.002;5.956;2023-10-08T11:38:43;0.95;;;0.52;;
39044;SDS011;52192;52.002;5.956;2023-10-08T11:41:18;0.40;;;0.30;;
39044;SDS011;52192;52.002;5.956;2023-10-08T11:43:50;0.32;;;0.32;;
39044;SDS011;52192;52.002;5.956;2023-10-08T11:46:28;0.30;;;0.30;;
39044;SDS011;52192;52.002;5.956;2023-10-08T11:49:06;0.55;;;0.55;;
39044;SDS011;52192;52.002;5.956;2023-10-08T11:51:43;0.65;;;0.65;;
39044;SDS011;52192;52.002;5.956;2023-10-08T11:54:10;0.50;;;0.50;;
39044;SDS011;52192;52.002;5.956;2023-10-08T11:56:39;1.27;;;0.68;;
39044;SDS011;52192;52.002;5.956;2023-10-08T11:59:06;3.63;;;0.50;;
39044;SDS011;52192;52.002;5.956;2023-10-08T12:01:35;5.38;;;0.73;;
39044;SDS011;52192;52.002;5.956;2023-10-08T12:04:02;0.47;;;0.47;;
39044;SDS011;52192;52.002;5.956;2023-10-08T12:06:28;1.45;;;0.45;;
39044;SDS011;52192;52.002;5.956;2023-10-08T12:08:58;1.13;;;0.65;;
39044;SDS011;52192;52.002;5.956;2023-10-08T12:11:24;0.63;;;0.47;;
39044;SDS011;52192;52.002;5.956;2023-10-08T12:13:56;0.70;;;0.70;;
39044;SDS011;52192;52.002;5.956;2023-10-08T12:16:24;0.50;;;0.50;;
39044;SDS011;52192;52.002;5.956;2023-10-08T12:18:54;0.55;;;0.55;;
39044;SDS011;52192;52.002;5.956;2023-10-08T12:21:27;0.73;;;0.68;;
39044;SDS011;52192;52.002;5.956;2023-10-08T12:24:00;2.60;;;0.90;;
39044;SDS011;52192;52.002;5.956;2023-10-08T12:26:30;0.63;;;0.63;;
39044;SDS011;52192;52.002;5.956;2023-10-08T12:28:56;0.40;;;0.40;;
39044;SDS011;52192;52.002;5.956;2023-10-08T12:31:22;0.50;;;0.50;;
39044;SDS011;52192;52.002;5.956;2023-10-08T12:33:49;0.63;;;0.63;;
39044;SDS011;52192;52.002;5.956;2023-10-08T12:36:19;0.82;;;0.75;;
39044;SDS011;52192;52.002;5.956;2023-10-08T12:38:48;2.60;;;0.80;;
39044;SDS011;52192;52.002;5.956;2023-10-08T12:41:14;3.92;;;0.65;;
39044;SDS011;52192;52.002;5.956;2023-10-08T12:43:44;0.55;;;0.50;;
39044;SDS011;52192;52.002;5.956;2023-10-08T12:46:13;0.80;;;0.45;;
39044;SDS011;52192;52.002;5.956;2023-10-08T12:48:43;1.42;;;0.50;;
39044;SDS011;52192;52.002;5.956;2023-10-08T12:51:18;0.50;;;0.50;;
39044;SDS011;52192;52.002;5.956;2023-10-08T12:53:49;2.03;;;0.50;;
39044;SDS011;52192;52.002;5.956;2023-10-08T12:56:28;1.80;;;0.85;;
39044;SDS011;52192;52.002;5.956;2023-10-08T12:58:57;0.60;;;0.60;;
39044;SDS011;52192;52.002;5.956;2023-10-08T13:01:24;0.30;;;0.30;;
39044;SDS011;52192;52.002;5.956;2023-10-08T13:03:54;1.38;;;0.47;;
39044;SDS011;52192;52.002;5.956;2023-10-08T13:06:25;0.65;;;0.57;;
39044;SDS011;52192;52.002;5.956;2023-10-08T13:08:55;0.57;;;0.50;;
39044;SDS011;52192;52.002;5.956;2023-10-08T13:11:23;0.50;;;0.47;;
39044;SDS011;52192;52.002;5.956;2023-10-08T13:13:55;0.40;;;0.40;;
39044;SDS011;52192;52.002;5.956;2023-10-08T13:16:22;0.30;;;0.30;;
39044;SDS011;52192;52.002;5.956;2023-10-08T13:18:50;0.32;;;0.32;;
39044;SDS011;52192;52.002;5.956;2023-10-08T13:21:17;2.42;;;0.57;;
39044;SDS011;52192;52.002;5.956;2023-10-08T13:23:47;4.22;;;1.30;;
39044;SDS011;52192;52.002;5.956;2023-10-08T13:26:14;0.68;;;0.50;;
39044;SDS011;52192;52.002;5.956;2023-10-08T13:28:42;0.47;;;0.47;;
39044;SDS011;52192;52.002;5.956;2023-10-08T13:31:09;2.22;;;0.77;;
39044;SDS011;52192;52.002;5.956;2023-10-08T13:33:39;0.60;;;0.60;;
39044;SDS011;52192;52.002;5.956;2023-10-08T13:36:07;0.70;;;0.65;;
39044;SDS011;52192;52.002;5.956;2023-10-08T13:38:34;0.50;;;0.50;;
39044;SDS011;52192;52.002;5.956;2023-10-08T13:41:01;0.60;;;0.60;;
39044;SDS011;52192;52.002;5.956;2023-10-08T13:43:46;2.10;;;0.45;;
39044;SDS011;52192;52.002;5.956;2023-10-08T13:46:13;0.40;;;0.40;;
39044;SDS011;52192;52.002;5.956;2023-10-08T13:48:42;0.40;;;0.40;;
39044;SDS011;52192;52.002;5.956;2023-10-08T13:51:21;0.50;;;0.50;;
39044;SDS011;52192;52.002;5.956;2023-10-08T13:53:51;0.80;;;0.73;;
39044;SDS011;52192;52.002;5.956;2023-10-08T13:56:21;1.15;;;0.47;;
39044;SDS011;52192;52.002;5.956;2023-10-08T13:58:51;0.50;;;0.50;;
39044;SDS011;52192;52.002;5.956;2023-10-08T14:01:22;0.45;;;0.45;;
39044;SDS011;52192;52.002;5.956;2023-10-08T14:03:50;0.95;;;0.50;;
39044;SDS011;52192;52.002;5.956;2023-10-08T14:06:19;0.70;;;0.63;;
39044;SDS011;52192;52.002;5.956;2023-10-08T14:08:45;0.73;;;0.60;;
39044;SDS011;52192;52.002;5.956;2023-10-08T14:11:18;0.60;;;0.50;;
39044;SDS011;52192;52.002;5.956;2023-10-08T14:13:44;1.15;;;0.65;;
39044;SDS011;52192;52.002;5.956;2023-10-08T14:16:12;1.75;;;0.90;;
39044;SDS011;52192;52.002;5.956;2023-10-08T14:18:39;1.45;;;0.43;;
39044;SDS011;52192;52.002;5.956;2023-10-08T14:21:08;1.60;;;0.80;;
39044;SDS011;52192;52.002;5.956;2023-10-08T14:23:37;1.85;;;0.47;;
39044;SDS011;52192;52.002;5.956;2023-10-08T14:26:07;0.68;;;0.60;;
39044;SDS011;52192;52.002;5.956;2023-10-08T14:28:36;2.70;;;0.60;;
39044;SDS011;52192;52.002;5.956;2023-10-08T14:31:23;0.93;;;0.40;;
39044;SDS011;52192;52.002;5.956;2023-10-08T14:33:51;0.43;;;0.43;;
39044;SDS011;52192;52.002;5.956;2023-10-08T14:36:35;0.57;;;0.57;;
39044;SDS011;52192;52.002;5.956;2023-10-08T14:39:20;0.50;;;0.50;;
39044;SDS011;52192;52.002;5.956;2023-10-08T14:42:14;3.20;;;0.60;;
39044;SDS011;52192;52.002;5.956;2023-10-08T14:44:59;0.70;;;0.63;;
39044;SDS011;52192;52.002;5.956;2023-10-08T14:47:25;0.35;;;0.35;;
39044;SDS011;52192;52.002;5.956;2023-10-08T14:49:51;0.30;;;0.30;;
39044;SDS011;52192;52.002;5.956;2023-10-08T14:52:17;0.57;;;0.57;;
39044;SDS011;52192;52.002;5.956;2023-10-08T14:54:43;0.52;;;0.52;;
39044;SDS011;52192;52.002;5.956;2023-10-08T14:57:10;0.60;;;0.60;;
39044;SDS011;52192;52.002;5.956;2023-10-08T14:59:39;0.40;;;0.40;;
39044;SDS011;52192;52.002;5.956;2023-10-08T15:02:08;0.70;;;0.70;;
39044;SDS011;52192;52.002;5.956;2023-10-08T15:04:36;1.25;;;0.75;;
39044;SDS011;52192;52.002;5.956;2023-10-08T15:07:05;0.45;;;0.45;;
39044;SDS011;52192;52.002;5.956;2023-10-08T15:09:35;1.13;;;0.93;;
39044;SDS011;52192;52.002;5.956;2023-10-08T15:12:02;0.35;;;0.35;;
39044;SDS011;52192;52.002;5.956;2023-10-08T15:14:28;0.70;;;0.57;;
39044;SDS011;52192;52.002;5.956;2023-10-08T15:16:54;0.40;;;0.40;;
39044;SDS011;52192;52.002;5.956;2023-10-08T15:19:22;0.93;;;0.60;;
39044;SDS011;52192;52.002;5.956;2023-10-08T15:21:49;1.13;;;1.00;;
39044;SDS011;52192;52.002;5.956;2023-10-08T15:24:18;0.60;;;0.60;;
39044;SDS011;52192;52.002;5.956;2023-10-08T15:26:48;0.60;;;0.60;;
39044;SDS011;52192;52.002;5.956;2023-10-08T15:29:15;0.47;;;0.47;;